Lebanon, Wisconsin
Current Conditions -  °F | °C
As of 12:15 PM on Thursday 18 Dec 2014 (Local Time) from KRYV Reporting Station
Haze Haze  
Wind Chill: 26°   Ceiling: 1000
Heat Index: 26°   Visibility: 4mi
Dew Point: 24°   Wind: 3mph
Humidity: 95%   Direction: 290°WNW
Pressure: 30.24"   Gusts: NA
Location:  43.26°N, 88.63°W
Report Text: KRYV 181815Z AUTO 29003KT 4SM BR OVC010 M04/M04 A3024 RMK AO2 T10361043
Loading
Personal Weather Stations






























Interactive Weather Map New forecast layout! Learn more

10-Day Weather Forecast

Advertisements
Track Severe Weather on mobile